createdAt,value
2024-02-15T00:00:28.400Z,10.75
2024-02-15T00:01:19.951Z,10.73
2024-02-15T00:02:11.633Z,10.71
2024-02-15T00:03:03.308Z,10.74
2024-02-15T00:03:54.829Z,10.75
2024-02-15T00:04:46.281Z,10.77
2024-02-15T00:05:37.825Z,10.79
2024-02-15T00:06:29.622Z,10.76
2024-02-15T00:07:23.762Z,10.74
2024-02-15T00:08:16.224Z,10.76
2024-02-15T00:09:07.764Z,10.77
2024-02-15T00:10:00.078Z,10.76
2024-02-15T00:10:51.566Z,10.71
2024-02-15T00:11:43.026Z,10.75
2024-02-15T00:12:34.511Z,10.73
2024-02-15T00:13:25.964Z,10.73
2024-02-15T00:14:18.089Z,10.72
2024-02-15T00:15:09.959Z,10.71
2024-02-15T00:16:02.005Z,10.73
2024-02-15T00:16:53.444Z,10.74
2024-02-15T00:17:44.986Z,10.75
2024-02-15T00:18:36.665Z,10.74
2024-02-15T00:19:31.148Z,10.75
2024-02-15T00:20:22.871Z,10.72
2024-02-15T00:21:14.533Z,10.75
2024-02-15T00:22:06.261Z,10.72
2024-02-15T00:22:57.710Z,10.73
2024-02-15T00:23:49.503Z,10.73
2024-02-15T00:24:42.760Z,10.72
2024-02-15T00:25:34.619Z,10.73
2024-02-15T00:26:26.648Z,10.75
2024-02-15T00:27:18.785Z,10.74
2024-02-15T00:28:10.228Z,10.73
2024-02-15T00:29:01.977Z,10.75
2024-02-15T00:29:53.540Z,10.71
2024-02-15T00:30:45.185Z,10.72
2024-02-15T00:31:36.736Z,10.69
2024-02-15T00:32:28.228Z,10.70
2024-02-15T00:33:19.976Z,10.65
2024-02-15T00:34:12.698Z,10.65
2024-02-15T00:35:08.800Z,10.63
2024-02-15T00:36:01.090Z,10.61
2024-02-15T00:36:52.623Z,10.62
2024-02-15T00:37:44.093Z,10.61
2024-02-15T00:38:36.205Z,10.61
2024-02-15T00:39:27.689Z,10.62
2024-02-15T00:40:19.256Z,10.63
2024-02-15T00:41:11.516Z,10.65
2024-02-15T00:42:02.989Z,10.64
2024-02-15T00:42:54.528Z,10.66
2024-02-15T00:43:45.996Z,10.67
2024-02-15T00:44:38.278Z,10.70
2024-02-15T00:45:29.692Z,10.72
2024-02-15T00:46:21.060Z,10.70
2024-02-15T00:47:15.098Z,10.74
2024-02-15T00:48:07.467Z,10.75
2024-02-15T00:48:59.364Z,10.69
2024-02-15T00:49:53.701Z,10.67
2024-02-15T00:50:45.348Z,10.65
2024-02-15T00:51:37.331Z,10.64
2024-02-15T00:52:30.314Z,10.63
2024-02-15T00:53:21.953Z,10.63
2024-02-15T00:54:13.584Z,10.65
2024-02-15T00:55:05.516Z,10.68
2024-02-15T00:55:57.139Z,10.69
2024-02-15T00:56:48.593Z,10.65
2024-02-15T00:57:39.981Z,10.63
2024-02-15T00:58:31.393Z,10.61
2024-02-15T00:59:22.831Z,10.62
2024-02-15T01:00:14.892Z,10.62
2024-02-15T01:01:06.444Z,10.63
2024-02-15T01:01:57.936Z,10.59
2024-02-15T01:02:50.502Z,10.60
2024-02-15T01:03:41.991Z,10.62
2024-02-15T01:04:33.518Z,10.67
2024-02-15T01:05:25.295Z,10.65
2024-02-15T01:06:16.988Z,10.63
2024-02-15T01:07:09.038Z,10.62
2024-02-15T01:08:00.525Z,10.63
2024-02-15T01:08:52.696Z,10.65
2024-02-15T01:09:44.174Z,10.68
2024-02-15T01:10:36.161Z,10.68
2024-02-15T01:11:29.387Z,10.67
2024-02-15T01:12:22.042Z,10.69
2024-02-15T01:13:13.470Z,10.65
2024-02-15T01:14:05.046Z,10.64
2024-02-15T01:14:57.511Z,10.63
2024-02-15T01:15:49.329Z,10.64
2024-02-15T01:16:40.742Z,10.63
2024-02-15T01:17:32.347Z,10.65
2024-02-15T01:18:23.929Z,10.62
2024-02-15T01:19:15.603Z,10.63
2024-02-15T01:20:08.184Z,10.60
2024-02-15T01:20:59.704Z,10.62
2024-02-15T01:21:51.134Z,10.63
2024-02-15T01:22:42.579Z,10.64
2024-02-15T01:23:36.326Z,10.62
2024-02-15T01:24:27.744Z,10.66
2024-02-15T01:25:19.199Z,10.67
2024-02-15T01:26:10.598Z,10.69
2024-02-15T01:27:02.409Z,10.65
2024-02-15T01:27:53.984Z,10.64
2024-02-15T01:28:45.420Z,10.63
2024-02-15T01:29:37.187Z,10.66
2024-02-15T01:30:29.752Z,10.65
2024-02-15T01:31:21.361Z,10.63
2024-02-15T01:32:12.814Z,10.62
2024-02-15T01:33:04.685Z,10.62
2024-02-15T01:33:56.342Z,10.59
2024-02-15T01:34:47.970Z,10.59
2024-02-15T01:35:39.698Z,10.59
2024-02-15T01:36:31.752Z,10.57
2024-02-15T01:37:23.611Z,10.57
2024-02-15T01:38:15.622Z,10.55
2024-02-15T01:39:07.069Z,10.57
2024-02-15T01:39:58.623Z,10.52
2024-02-15T01:40:50.245Z,10.54
2024-02-15T01:41:41.755Z,10.54
2024-02-15T01:42:33.592Z,10.55
2024-02-15T01:43:25.070Z,10.53
2024-02-15T01:44:16.532Z,10.51
2024-02-15T01:45:11.069Z,10.52
2024-02-15T01:46:10.108Z,10.52
2024-02-15T01:47:01.811Z,10.54
2024-02-15T01:47:54.901Z,10.53
2024-02-15T01:48:46.740Z,10.57
2024-02-15T01:49:38.380Z,10.60
2024-02-15T01:50:30.157Z,10.58
2024-02-15T01:51:21.659Z,10.58
2024-02-15T01:52:14.310Z,10.55
2024-02-15T01:53:09.541Z,10.56
2024-02-15T01:54:02.443Z,10.56
2024-02-15T01:54:55.346Z,10.57
2024-02-15T01:55:47.764Z,10.56
2024-02-15T01:56:39.419Z,10.55
2024-02-15T01:57:31.252Z,10.58
2024-02-15T01:58:23.058Z,10.56
2024-02-15T01:59:16.994Z,10.57
2024-02-15T02:00:13.786Z,10.60
2024-02-15T02:01:06.472Z,10.60
2024-02-15T02:01:58.107Z,10.57
2024-02-15T02:02:49.769Z,10.58
2024-02-15T02:03:41.435Z,10.58
2024-02-15T02:04:32.905Z,10.57
2024-02-15T02:05:24.482Z,10.54
2024-02-15T02:06:17.123Z,10.55
2024-02-15T02:07:09.039Z,10.55
2024-02-15T02:08:02.733Z,10.53
2024-02-15T02:08:56.592Z,10.53
2024-02-15T02:09:48.697Z,10.55
2024-02-15T02:10:40.883Z,10.52
2024-02-15T02:11:32.565Z,10.50
2024-02-15T02:12:25.849Z,10.47
2024-02-15T02:13:17.347Z,10.50
2024-02-15T02:14:09.817Z,10.45
2024-02-15T02:15:01.382Z,10.42
2024-02-15T02:15:52.811Z,10.44
2024-02-15T02:16:47.514Z,10.43
2024-02-15T02:17:40.954Z,10.43
2024-02-15T02:18:32.543Z,10.42
2024-02-15T02:19:24.063Z,10.43
2024-02-15T02:20:15.795Z,10.43
2024-02-15T02:21:07.333Z,10.45
2024-02-15T02:21:58.781Z,10.47
2024-02-15T02:22:52.861Z,10.50
2024-02-15T02:23:53.178Z,10.45
2024-02-15T02:25:07.077Z,10.51
2024-02-15T02:25:59.446Z,10.49
2024-02-15T02:26:50.890Z,10.48
2024-02-15T02:27:42.372Z,10.50
2024-02-15T02:28:33.853Z,10.49
2024-02-15T02:29:25.251Z,10.52
2024-02-15T02:30:19.789Z,10.51
2024-02-15T02:31:12.814Z,10.45
2024-02-15T02:32:04.466Z,10.49
2024-02-15T02:32:57.974Z,10.49
2024-02-15T02:33:54.212Z,10.50
2024-02-15T02:34:45.882Z,10.50
2024-02-15T02:35:37.758Z,10.48
2024-02-15T02:36:30.324Z,10.50
2024-02-15T02:37:21.763Z,10.48
2024-02-15T02:38:14.105Z,10.47
2024-02-15T02:39:05.765Z,10.49
2024-02-15T02:39:57.301Z,10.51
2024-02-15T02:40:48.772Z,10.51
2024-02-15T02:41:40.270Z,10.55
2024-02-15T02:42:33.349Z,10.54
2024-02-15T02:43:25.185Z,10.51
2024-02-15T02:44:16.600Z,10.47
2024-02-15T02:45:08.374Z,10.49
2024-02-15T02:45:59.816Z,10.46
2024-02-15T02:46:51.258Z,10.44
2024-02-15T02:47:42.736Z,10.42
2024-02-15T02:48:34.290Z,10.41
2024-02-15T02:49:25.881Z,10.42
2024-02-15T02:50:17.370Z,10.42
2024-02-15T02:51:08.973Z,10.39
2024-02-15T02:52:00.561Z,10.41
2024-02-15T02:52:52.356Z,10.40
2024-02-15T02:53:43.753Z,10.38
2024-02-15T02:54:35.681Z,10.37
2024-02-15T02:55:28.189Z,10.36
2024-02-15T02:56:19.682Z,10.36
2024-02-15T02:57:11.126Z,10.36
2024-02-15T02:58:03.492Z,10.35
2024-02-15T02:58:54.907Z,10.33
2024-02-15T02:59:46.481Z,10.31
2024-02-15T03:00:38.596Z,10.32
2024-02-15T03:01:30.022Z,10.35
2024-02-15T03:02:23.651Z,10.36
2024-02-15T03:03:15.406Z,10.36
2024-02-15T03:04:06.853Z,10.37
2024-02-15T03:04:59.035Z,10.36
2024-02-15T03:05:50.577Z,10.36
2024-02-15T03:06:43.384Z,10.36
2024-02-15T03:07:36.258Z,10.39
2024-02-15T03:08:27.646Z,10.41
2024-02-15T03:09:19.126Z,10.40
2024-02-15T03:10:11.483Z,10.42
2024-02-15T03:11:03.075Z,10.42
2024-02-15T03:11:54.467Z,10.40
2024-02-15T03:12:49.554Z,10.40
2024-02-15T03:13:41.364Z,10.41
2024-02-15T03:14:36.391Z,10.37
2024-02-15T03:15:27.925Z,10.39
2024-02-15T03:16:23.405Z,10.37
2024-02-15T03:17:14.863Z,10.41
2024-02-15T03:18:08.140Z,10.40
2024-02-15T03:19:00.443Z,10.40
2024-02-15T03:19:51.818Z,10.41
2024-02-15T03:20:43.436Z,10.39
2024-02-15T03:21:35.006Z,10.40
2024-02-15T03:22:27.054Z,10.42
2024-02-15T03:23:18.458Z,10.43
2024-02-15T03:24:09.892Z,10.42
2024-02-15T03:25:01.398Z,10.42
2024-02-15T03:25:54.636Z,10.45
2024-02-15T03:26:46.356Z,10.45
2024-02-15T03:27:38.336Z,10.44
2024-02-15T03:28:29.785Z,10.48
2024-02-15T03:29:21.449Z,10.43
2024-02-15T03:30:13.131Z,10.45
2024-02-15T03:31:04.602Z,10.44
2024-02-15T03:31:56.599Z,10.43
2024-02-15T03:32:52.274Z,10.47
2024-02-15T03:33:44.193Z,10.45
2024-02-15T03:34:35.687Z,10.45
2024-02-15T03:35:29.890Z,10.48
2024-02-15T03:36:22.711Z,10.46
2024-02-15T03:37:14.231Z,10.48
2024-02-15T03:38:06.082Z,10.49
2024-02-15T03:38:57.592Z,10.48
2024-02-15T03:39:49.124Z,10.52
2024-02-15T03:40:41.595Z,10.53
2024-02-15T03:41:34.000Z,10.51
2024-02-15T03:42:26.855Z,10.52
2024-02-15T03:43:18.811Z,10.51
2024-02-15T03:44:11.092Z,10.51
2024-02-15T03:45:02.512Z,10.49
2024-02-15T03:45:54.194Z,10.48
2024-02-15T03:46:51.984Z,10.46
2024-02-15T03:47:43.530Z,10.49
2024-02-15T03:48:35.155Z,10.49
2024-02-15T03:49:27.604Z,10.48
2024-02-15T03:50:19.788Z,10.47
2024-02-15T03:51:11.268Z,10.44
2024-02-15T03:52:02.762Z,10.47
2024-02-15T03:52:54.176Z,10.42
2024-02-15T03:53:45.658Z,10.47
2024-02-15T03:54:37.485Z,10.46
2024-02-15T03:55:28.985Z,10.46
2024-02-15T03:56:23.603Z,10.44
2024-02-15T03:57:17.800Z,10.43
2024-02-15T03:58:09.813Z,10.42
2024-02-15T03:59:05.261Z,10.41
2024-02-15T03:59:59.924Z,10.43
2024-02-15T04:00:51.429Z,10.45
2024-02-15T04:01:42.962Z,10.48
2024-02-15T04:02:36.363Z,10.51
2024-02-15T04:03:27.888Z,10.49
2024-02-15T04:04:19.405Z,10.48
2024-02-15T04:05:13.111Z,10.46
2024-02-15T04:06:05.610Z,10.45
2024-02-15T04:06:57.618Z,10.41
2024-02-15T04:07:49.187Z,10.43
2024-02-15T04:08:40.687Z,10.43
2024-02-15T04:09:32.103Z,10.43
2024-02-15T04:10:24.187Z,10.42
2024-02-15T04:11:17.390Z,10.43
2024-02-15T04:12:09.068Z,10.41
2024-02-15T04:13:00.542Z,10.42
2024-02-15T04:13:52.143Z,10.40
2024-02-15T04:14:47.679Z,10.43
2024-02-15T04:15:39.318Z,10.42
2024-02-15T04:16:33.228Z,10.45
2024-02-15T04:17:26.438Z,10.43
2024-02-15T04:18:17.910Z,10.47
2024-02-15T04:19:09.668Z,10.41
2024-02-15T04:20:01.941Z,10.41
2024-02-15T04:20:53.343Z,10.42
2024-02-15T04:21:45.190Z,10.41
2024-02-15T04:22:39.338Z,10.40
2024-02-15T04:23:30.961Z,10.42
2024-02-15T04:24:22.686Z,10.37
2024-02-15T04:25:23.962Z,10.40
2024-02-15T04:26:15.368Z,10.39
2024-02-15T04:27:09.768Z,10.43
2024-02-15T04:28:04.528Z,10.46
2024-02-15T04:28:55.942Z,10.45
2024-02-15T04:29:47.719Z,10.43
2024-02-15T04:30:39.475Z,10.40
2024-02-15T04:31:32.433Z,10.42
2024-02-15T04:32:23.882Z,10.41
2024-02-15T04:33:16.635Z,10.41
2024-02-15T04:34:08.459Z,10.39
2024-02-15T04:35:02.232Z,10.38
2024-02-15T04:35:53.651Z,10.40
2024-02-15T04:36:51.812Z,10.40
2024-02-15T04:37:43.405Z,10.43
2024-02-15T04:38:37.764Z,10.43
2024-02-15T04:39:31.251Z,10.42
2024-02-15T04:40:22.646Z,10.41
2024-02-15T04:41:14.106Z,10.43
2024-02-15T04:42:12.408Z,10.51
2024-02-15T04:43:05.256Z,10.47
2024-02-15T04:43:56.899Z,10.49
2024-02-15T04:44:48.346Z,10.49
2024-02-15T04:45:39.732Z,10.49
2024-02-15T04:46:31.178Z,10.51
2024-02-15T04:47:22.632Z,10.49
2024-02-15T04:48:15.211Z,10.52
2024-02-15T04:49:09.029Z,10.49
2024-02-15T04:50:00.645Z,10.47
2024-02-15T04:50:53.269Z,10.48
2024-02-15T04:51:45.013Z,10.51
2024-02-15T04:52:36.427Z,10.49
2024-02-15T04:53:30.324Z,10.48
2024-02-15T04:54:22.877Z,10.49
2024-02-15T04:55:16.745Z,10.50
2024-02-15T04:56:13.284Z,10.51
2024-02-15T04:57:04.954Z,10.51
2024-02-15T04:57:56.853Z,10.50
2024-02-15T04:58:48.713Z,10.50
2024-02-15T04:59:40.508Z,10.53
2024-02-15T05:00:31.969Z,10.51
2024-02-15T05:01:23.647Z,10.52
2024-02-15T05:02:15.575Z,10.53
2024-02-15T05:03:08.948Z,10.53
2024-02-15T05:04:00.821Z,10.54
2024-02-15T05:04:57.784Z,10.54
2024-02-15T05:05:49.503Z,10.60
2024-02-15T05:06:41.253Z,10.60
2024-02-15T05:07:32.670Z,10.64
2024-02-15T05:08:24.106Z,10.65
2024-02-15T05:09:15.910Z,10.66
2024-02-15T05:10:08.765Z,10.65
2024-02-15T05:11:00.321Z,10.69
2024-02-15T05:11:53.382Z,10.68
2024-02-15T05:12:44.825Z,10.67
2024-02-15T05:13:36.221Z,10.67
2024-02-15T05:14:27.936Z,10.69
2024-02-15T05:15:20.113Z,10.70
2024-02-15T05:16:12.337Z,10.75
2024-02-15T05:17:03.897Z,10.74
2024-02-15T05:17:55.804Z,10.75
2024-02-15T05:18:47.474Z,10.73
2024-02-15T05:19:38.975Z,10.74
2024-02-15T05:20:30.456Z,10.75
2024-02-15T05:21:21.887Z,10.79
2024-02-15T05:22:14.463Z,10.78
2024-02-15T05:23:05.911Z,10.78
2024-02-15T05:23:58.552Z,10.78
2024-02-15T05:24:49.989Z,10.78
2024-02-15T05:25:42.519Z,10.79
2024-02-15T05:26:34.051Z,10.76
2024-02-15T05:27:25.480Z,10.77
2024-02-15T05:28:18.983Z,10.78
2024-02-15T05:29:12.231Z,10.79
2024-02-15T05:30:08.056Z,10.76
2024-02-15T05:31:18.570Z,10.75
2024-02-15T05:32:10.605Z,10.72
2024-02-15T05:33:02.431Z,10.74
2024-02-15T05:33:55.271Z,10.74
2024-02-15T05:34:48.782Z,10.75
2024-02-15T05:35:42.429Z,10.77
2024-02-15T05:36:34.865Z,10.75
2024-02-15T05:37:26.279Z,10.75
2024-02-15T05:38:18.137Z,10.75
2024-02-15T05:39:12.633Z,10.80
2024-02-15T05:40:05.055Z,10.78
2024-02-15T05:40:57.749Z,10.77
2024-02-15T05:41:49.545Z,10.78
2024-02-15T05:42:40.947Z,10.79
2024-02-15T05:43:33.831Z,10.79
2024-02-15T05:44:26.593Z,10.78
2024-02-15T05:45:24.099Z,10.78
2024-02-15T05:46:15.662Z,10.78
2024-02-15T05:47:07.140Z,10.78
2024-02-15T05:47:59.614Z,10.73
2024-02-15T05:48:55.164Z,10.73
2024-02-15T05:49:48.199Z,10.72
2024-02-15T05:50:39.732Z,10.74
2024-02-15T05:51:32.092Z,10.73
2024-02-15T05:52:24.375Z,10.75
2024-02-15T05:53:15.830Z,10.77
2024-02-15T05:54:07.292Z,10.77
2024-02-15T05:54:58.682Z,10.75
2024-02-15T05:55:50.775Z,10.78
2024-02-15T05:56:43.946Z,10.78
2024-02-15T05:57:35.400Z,10.79
2024-02-15T05:58:26.886Z,10.81
2024-02-15T05:59:21.174Z,10.77
2024-02-15T06:00:21.316Z,10.80
2024-02-15T06:01:15.246Z,10.78
2024-02-15T06:02:06.723Z,10.77
2024-02-15T06:02:58.263Z,10.80
2024-02-15T06:03:49.951Z,10.81
2024-02-15T06:04:42.246Z,10.82
2024-02-15T06:05:33.844Z,10.82
2024-02-15T06:06:27.618Z,10.82
2024-02-15T06:07:20.021Z,10.82
2024-02-15T06:08:14.977Z,10.80
2024-02-15T06:09:06.434Z,10.77
2024-02-15T06:09:59.049Z,10.78
2024-02-15T06:10:51.372Z,10.78
2024-02-15T06:11:45.398Z,10.79
2024-02-15T06:12:36.819Z,10.80
2024-02-15T06:13:28.748Z,10.82
2024-02-15T06:14:21.075Z,10.86
2024-02-15T06:15:22.026Z,10.86
2024-02-15T06:16:13.514Z,10.86
2024-02-15T06:17:05.086Z,10.85
2024-02-15T06:17:56.588Z,10.88
2024-02-15T06:18:49.060Z,10.87
2024-02-15T06:19:40.550Z,10.87
2024-02-15T06:20:34.441Z,10.84
2024-02-15T06:21:26.206Z,10.84
2024-02-15T06:22:17.689Z,10.88
2024-02-15T06:23:09.374Z,10.86
2024-02-15T06:24:00.820Z,10.84
2024-02-15T06:24:52.266Z,10.84
2024-02-15T06:25:44.706Z,10.80
2024-02-15T06:26:36.120Z,10.81
2024-02-15T06:27:27.554Z,10.78
2024-02-15T06:28:37.761Z,10.80
2024-02-15T06:29:47.632Z,10.79
2024-02-15T06:30:57.796Z,10.79
2024-02-15T06:32:07.631Z,10.78
2024-02-15T06:33:17.867Z,10.75
2024-02-15T06:34:27.975Z,10.77
2024-02-15T06:35:38.223Z,10.78
2024-02-15T06:36:48.149Z,10.79
2024-02-15T06:37:59.159Z,10.80
2024-02-15T06:39:08.970Z,10.81
2024-02-15T06:40:00.442Z,10.81
2024-02-15T06:40:51.888Z,10.82
2024-02-15T06:41:43.396Z,10.79
2024-02-15T06:42:34.985Z,10.79
2024-02-15T06:43:26.669Z,10.80
2024-02-15T06:44:18.124Z,10.79
2024-02-15T06:45:11.122Z,10.79
2024-02-15T06:46:03.734Z,10.79
2024-02-15T06:46:55.246Z,10.78
2024-02-15T06:47:47.088Z,10.78
2024-02-15T06:48:38.719Z,10.80
2024-02-15T06:49:30.443Z,10.78
2024-02-15T06:50:21.879Z,10.80
2024-02-15T06:51:16.934Z,10.82
2024-02-15T06:52:09.096Z,10.80
2024-02-15T06:53:00.541Z,10.81
2024-02-15T06:53:52.686Z,10.81
2024-02-15T06:54:44.429Z,10.78
2024-02-15T06:55:37.574Z,10.81
2024-02-15T06:56:28.955Z,10.80
2024-02-15T06:57:21.342Z,10.82
2024-02-15T06:58:14.875Z,10.80
2024-02-15T06:59:08.371Z,10.81
2024-02-15T06:59:59.864Z,10.80
2024-02-15T07:00:51.377Z,10.76
2024-02-15T07:01:43.398Z,10.80
2024-02-15T07:02:35.166Z,10.77
2024-02-15T07:03:26.788Z,10.81
2024-02-15T07:04:18.182Z,10.81
2024-02-15T07:05:11.606Z,10.82
2024-02-15T07:06:04.046Z,10.85
2024-02-15T07:06:56.006Z,10.85
2024-02-15T07:07:47.575Z,10.83
2024-02-15T07:08:39.035Z,10.83
2024-02-15T07:09:30.650Z,10.85
2024-02-15T07:10:22.425Z,10.84
2024-02-15T07:11:13.859Z,10.85
2024-02-15T07:12:05.853Z,10.86
2024-02-15T07:12:57.456Z,10.85
2024-02-15T07:13:49.230Z,10.87
2024-02-15T07:14:40.861Z,10.87
2024-02-15T07:15:34.073Z,10.85
2024-02-15T07:16:25.544Z,10.87
2024-02-15T07:17:16.927Z,10.90
2024-02-15T07:18:08.577Z,10.89
2024-02-15T07:19:01.177Z,10.88
2024-02-15T07:19:52.830Z,10.89
2024-02-15T07:20:46.645Z,10.90
2024-02-15T07:21:39.328Z,10.89
2024-02-15T07:22:33.650Z,10.85
2024-02-15T07:23:26.380Z,10.84
2024-02-15T07:24:18.002Z,10.86
2024-02-15T07:25:09.933Z,10.83
2024-02-15T07:26:01.333Z,10.84
2024-02-15T07:26:55.473Z,10.85
2024-02-15T07:27:46.970Z,10.85
2024-02-15T07:28:38.395Z,10.84
2024-02-15T07:29:32.350Z,10.86
2024-02-15T07:30:26.149Z,10.85
2024-02-15T07:31:17.932Z,10.81
2024-02-15T07:32:09.491Z,10.81
2024-02-15T07:33:01.166Z,10.84
2024-02-15T07:33:52.971Z,10.84
2024-02-15T07:34:48.843Z,10.84
2024-02-15T07:35:40.274Z,10.82
2024-02-15T07:36:31.731Z,10.84
2024-02-15T07:37:27.039Z,10.84
2024-02-15T07:38:18.692Z,10.84
2024-02-15T07:39:14.276Z,10.87
2024-02-15T07:40:09.142Z,10.89
2024-02-15T07:41:00.704Z,10.92
2024-02-15T07:41:52.912Z,10.89
2024-02-15T07:42:44.339Z,10.91
2024-02-15T07:43:35.807Z,10.91
2024-02-15T07:44:30.957Z,10.88
2024-02-15T07:45:22.518Z,10.90
2024-02-15T07:46:15.189Z,10.91
2024-02-15T07:47:06.627Z,10.96
2024-02-15T07:47:58.837Z,10.92
2024-02-15T07:48:50.703Z,10.92
2024-02-15T07:49:42.930Z,10.97
2024-02-15T07:50:34.584Z,10.97
2024-02-15T07:51:26.236Z,10.97
2024-02-15T07:52:18.064Z,10.99
2024-02-15T07:53:11.335Z,10.97
2024-02-15T07:54:02.961Z,10.99
2024-02-15T07:54:54.449Z,10.97
2024-02-15T07:55:45.835Z,11.00
2024-02-15T07:56:37.541Z,10.99
2024-02-15T07:57:29.212Z,11.01
2024-02-15T07:58:20.585Z,11.00
2024-02-15T07:59:12.006Z,11.01
2024-02-15T08:00:07.000Z,11.01
2024-02-15T08:01:02.479Z,11.01
2024-02-15T08:01:53.964Z,11.00
2024-02-15T08:02:45.483Z,11.01
2024-02-15T08:03:37.015Z,11.03
2024-02-15T08:04:29.717Z,11.07
2024-02-15T08:05:21.910Z,11.12
2024-02-15T08:06:15.797Z,11.13
2024-02-15T08:07:11.635Z,11.18
2024-02-15T08:08:05.217Z,11.22
2024-02-15T08:08:56.742Z,11.23
2024-02-15T08:09:51.678Z,11.21
2024-02-15T08:10:44.717Z,11.24
2024-02-15T08:11:36.242Z,11.25
2024-02-15T08:12:27.753Z,11.24
2024-02-15T08:13:23.559Z,11.28
2024-02-15T08:14:15.020Z,11.25
2024-02-15T08:15:12.769Z,11.25
2024-02-15T08:16:06.469Z,11.25
2024-02-15T08:16:57.918Z,11.23
2024-02-15T08:17:49.574Z,11.27
2024-02-15T08:18:41.257Z,11.24
2024-02-15T08:19:32.905Z,11.22
2024-02-15T08:20:24.642Z,11.20
2024-02-15T08:21:16.348Z,11.17
2024-02-15T08:22:08.779Z,11.22
2024-02-15T08:23:00.185Z,11.21
2024-02-15T08:23:51.601Z,11.18
2024-02-15T08:24:44.914Z,11.18
2024-02-15T08:25:41.116Z,11.17
2024-02-15T08:26:34.038Z,11.16
2024-02-15T08:27:25.514Z,11.17
2024-02-15T08:28:17.060Z,11.13
2024-02-15T08:29:08.564Z,11.18
2024-02-15T08:30:00.146Z,11.20
2024-02-15T08:30:53.505Z,11.21
2024-02-15T08:31:44.958Z,11.22
2024-02-15T08:32:36.676Z,11.23
2024-02-15T08:33:29.572Z,11.24
2024-02-15T08:34:21.842Z,11.23
2024-02-15T08:35:14.599Z,11.21
2024-02-15T08:36:06.692Z,11.17
2024-02-15T08:36:59.422Z,11.21
2024-02-15T08:37:52.665Z,11.21
2024-02-15T08:38:44.554Z,11.27
2024-02-15T08:39:36.092Z,11.29
2024-02-15T08:40:28.622Z,11.24
2024-02-15T08:41:21.815Z,11.23
2024-02-15T08:42:13.288Z,11.24
2024-02-15T08:43:04.752Z,11.29
2024-02-15T08:43:59.479Z,11.28
2024-02-15T08:44:50.935Z,11.22
2024-02-15T08:45:43.198Z,11.17
2024-02-15T08:46:34.761Z,11.12
2024-02-15T08:47:26.212Z,11.10
2024-02-15T08:48:18.386Z,11.10
2024-02-15T08:49:10.026Z,11.07
2024-02-15T08:50:01.590Z,11.06
2024-02-15T08:50:53.301Z,11.09
2024-02-15T08:51:44.866Z,11.10
2024-02-15T08:52:40.583Z,11.09
2024-02-15T08:53:32.956Z,11.07
2024-02-15T08:54:24.536Z,11.08
2024-02-15T08:55:16.364Z,11.09
2024-02-15T08:56:09.937Z,11.11
2024-02-15T08:57:02.855Z,11.15
2024-02-15T08:57:55.285Z,11.14
2024-02-15T08:58:46.829Z,11.24
2024-02-15T08:59:40.410Z,11.25
2024-02-15T09:00:32.208Z,11.25
2024-02-15T09:01:23.758Z,11.27
2024-02-15T09:02:15.496Z,11.29
2024-02-15T09:03:08.217Z,11.33
2024-02-15T09:03:59.915Z,11.37
2024-02-15T09:04:51.501Z,11.36
2024-02-15T09:05:43.065Z,11.31
2024-02-15T09:06:34.565Z,11.30
2024-02-15T09:07:26.061Z,11.33
2024-02-15T09:08:21.647Z,11.37
2024-02-15T09:09:13.172Z,11.39
2024-02-15T09:10:05.050Z,11.44
2024-02-15T09:10:56.558Z,11.51
2024-02-15T09:11:48.070Z,11.53
2024-02-15T09:12:43.732Z,11.61
2024-02-15T09:13:38.397Z,11.66
2024-02-15T09:14:29.797Z,11.68
2024-02-15T09:15:23.315Z,11.64
2024-02-15T09:16:14.916Z,11.64
2024-02-15T09:17:09.218Z,11.69
2024-02-15T09:18:00.750Z,11.75
2024-02-15T09:18:52.411Z,11.69
2024-02-15T09:19:44.015Z,11.75
2024-02-15T09:20:35.494Z,11.78
2024-02-15T09:21:29.335Z,11.87
2024-02-15T09:22:21.253Z,11.87
2024-02-15T09:23:13.288Z,11.91
2024-02-15T09:24:05.415Z,11.97
2024-02-15T09:24:56.873Z,12.04
2024-02-15T09:25:50.981Z,12.10
2024-02-15T09:26:42.885Z,12.17
2024-02-15T09:27:34.382Z,12.14
2024-02-15T09:28:25.808Z,12.22
2024-02-15T09:29:17.253Z,12.28
2024-02-15T09:30:10.616Z,12.33
2024-02-15T09:31:02.676Z,12.36
2024-02-15T09:31:54.087Z,12.38
2024-02-15T09:32:46.754Z,12.37
2024-02-15T09:33:38.642Z,12.46
2024-02-15T09:34:31.124Z,12.49
2024-02-15T09:35:23.518Z,12.40
2024-02-15T09:36:16.627Z,12.37
2024-02-15T09:37:08.194Z,12.38
2024-02-15T09:37:59.693Z,12.33
2024-02-15T09:38:51.133Z,12.31
2024-02-15T09:39:43.053Z,12.33
2024-02-15T09:40:35.624Z,12.26
2024-02-15T09:41:27.082Z,12.24
2024-02-15T09:42:18.508Z,12.25
2024-02-15T09:43:10.849Z,12.22
2024-02-15T09:44:02.704Z,12.18
2024-02-15T09:44:54.173Z,12.09
2024-02-15T09:45:45.666Z,12.16
2024-02-15T09:46:46.074Z,12.19
2024-02-15T09:47:38.810Z,12.18
2024-02-15T09:48:33.291Z,12.26
2024-02-15T09:49:25.027Z,12.32
2024-02-15T09:50:18.616Z,12.33
2024-02-15T09:51:13.477Z,12.41
2024-02-15T09:52:07.514Z,12.45
2024-02-15T09:52:59.352Z,12.54
2024-02-15T09:53:50.876Z,12.64
2024-02-15T09:54:46.325Z,12.66
2024-02-15T09:55:42.639Z,12.74
2024-02-15T09:56:35.917Z,12.77
2024-02-15T09:57:28.569Z,12.78
2024-02-15T09:58:20.664Z,12.86
2024-02-15T09:59:12.474Z,12.89
2024-02-15T10:00:08.286Z,12.93
2024-02-15T10:01:10.471Z,13.05
2024-02-15T10:02:02.061Z,13.17
2024-02-15T10:02:54.731Z,13.12
2024-02-15T10:03:51.467Z,13.12
2024-02-15T10:04:43.885Z,13.18
2024-02-15T10:05:36.110Z,13.27
2024-02-15T10:06:28.294Z,13.25
2024-02-15T10:07:20.212Z,13.26
2024-02-15T10:08:12.198Z,13.38
2024-02-15T10:09:29.677Z,13.36
2024-02-15T10:10:23.790Z,13.42
2024-02-15T10:11:16.225Z,13.39
2024-02-15T10:12:07.815Z,13.43
2024-02-15T10:13:01.977Z,13.41
2024-02-15T10:13:54.776Z,13.40
2024-02-15T10:14:53.023Z,13.34
2024-02-15T10:15:46.030Z,13.30
2024-02-15T10:16:37.507Z,13.21
2024-02-15T10:17:30.757Z,13.19
2024-02-15T10:18:23.384Z,13.21
2024-02-15T10:19:16.715Z,13.28
2024-02-15T10:20:10.979Z,13.27
2024-02-15T10:21:02.486Z,13.32
2024-02-15T10:22:07.141Z,13.29
2024-02-15T10:23:01.634Z,13.34
2024-02-15T10:24:07.385Z,13.33
2024-02-15T10:25:15.227Z,13.36
2024-02-15T10:26:23.804Z,13.36
2024-02-15T10:27:24.412Z,13.40
2024-02-15T10:28:24.273Z,13.33
2024-02-15T10:29:18.230Z,13.28
2024-02-15T10:30:17.183Z,13.31
2024-02-15T10:31:09.517Z,13.33
2024-02-15T10:32:03.153Z,13.42
2024-02-15T10:32:56.026Z,13.42
2024-02-15T10:33:49.556Z,13.40
2024-02-15T10:34:45.910Z,13.45
2024-02-15T10:35:38.054Z,13.46
2024-02-15T10:36:30.833Z,13.46
2024-02-15T10:37:24.480Z,13.48
2024-02-15T10:38:19.108Z,13.40
2024-02-15T10:39:17.884Z,13.43
2024-02-15T10:40:10.318Z,13.45
2024-02-15T10:41:07.116Z,13.50
2024-02-15T10:41:58.893Z,13.51
2024-02-15T10:42:52.819Z,13.72
2024-02-15T10:43:48.106Z,13.75
2024-02-15T10:44:41.498Z,13.83
2024-02-15T10:45:37.631Z,13.83
2024-02-15T10:46:31.268Z,13.98
2024-02-15T10:47:23.785Z,14.08
2024-02-15T10:48:15.416Z,14.14
2024-02-15T10:49:07.096Z,14.15
2024-02-15T10:49:59.289Z,14.08
2024-02-15T10:50:54.872Z,14.18
2024-02-15T10:51:52.571Z,14.10
2024-02-15T10:52:56.584Z,14.18
2024-02-15T10:54:04.770Z,14.22
2024-02-15T10:55:14.603Z,14.22
2024-02-15T10:56:24.390Z,14.24
2024-02-15T10:57:23.604Z,14.27
2024-02-15T10:58:20.591Z,14.33
2024-02-15T10:59:18.699Z,14.36
2024-02-15T11:00:21.754Z,14.38
2024-02-15T11:01:18.991Z,14.25
2024-02-15T11:02:30.258Z,14.25
2024-02-15T11:03:37.546Z,14.28
2024-02-15T11:04:36.043Z,14.30
2024-02-15T11:05:27.595Z,14.32
2024-02-15T11:06:22.563Z,14.28
2024-02-15T11:07:14.862Z,14.27
2024-02-15T11:08:09.288Z,14.23
2024-02-15T11:09:02.064Z,14.26
2024-02-15T11:09:53.870Z,14.31
2024-02-15T11:10:46.499Z,14.46
2024-02-15T11:11:40.574Z,14.45
2024-02-15T11:12:32.285Z,14.46
2024-02-15T11:13:23.780Z,14.43
2024-02-15T11:14:32.620Z,14.50
2024-02-15T11:15:36.266Z,14.49
2024-02-15T11:16:42.345Z,14.56
2024-02-15T11:17:46.294Z,14.55
2024-02-15T11:18:52.685Z,14.63
2024-02-15T11:19:48.940Z,14.69
2024-02-15T11:20:43.464Z,14.72
2024-02-15T11:21:55.295Z,14.87
2024-02-15T11:22:57.722Z,14.89
2024-02-15T11:23:49.936Z,14.84
2024-02-15T11:24:49.540Z,14.93